createdAt,value
2022-08-12T00:00:10.435Z,86.00
2022-08-12T00:02:55.964Z,86.40
2022-08-12T00:06:00.511Z,86.80
2022-08-12T00:08:48.790Z,87.10
2022-08-12T00:11:34.659Z,87.70
2022-08-12T00:14:20.186Z,88.40
2022-08-12T00:17:08.014Z,89.00
2022-08-12T00:19:53.756Z,89.30
2022-08-12T00:22:39.740Z,89.80
2022-08-12T00:25:55.849Z,90.00
2022-08-12T00:28:33.001Z,90.30
2022-08-12T00:31:19.136Z,90.60
2022-08-12T00:34:06.301Z,90.80
2022-08-12T00:36:51.990Z,90.90
2022-08-12T00:39:38.024Z,91.00
2022-08-12T00:42:11.606Z,91.30
2022-08-12T00:44:45.158Z,91.40
2022-08-12T00:47:25.670Z,91.70
2022-08-12T00:49:56.323Z,91.90
2022-08-12T00:52:25.410Z,92.10
2022-08-12T00:54:57.048Z,92.40
2022-08-12T00:57:28.857Z,92.60
2022-08-12T00:59:58.526Z,92.80
2022-08-12T01:02:28.933Z,93.00
2022-08-12T01:05:18.157Z,93.30
2022-08-12T01:08:05.243Z,93.60
2022-08-12T01:10:53.760Z,94.00
2022-08-12T01:13:22.593Z,94.60
2022-08-12T01:15:53.118Z,94.80
2022-08-12T01:18:22.390Z,95.10
2022-08-12T01:21:04.305Z,95.80
2022-08-12T01:23:50.131Z,95.80
2022-08-12T01:26:21.446Z,96.30
2022-08-12T01:28:52.534Z,96.60
2022-08-12T01:31:22.292Z,97.00
2022-08-12T01:34:03.573Z,97.40
2022-08-12T01:36:37.973Z,97.70
2022-08-12T01:39:06.569Z,98.20
2022-08-12T01:41:39.952Z,98.60
2022-08-12T01:44:10.193Z,99.00
2022-08-12T01:46:49.405Z,99.50
2022-08-12T01:49:33.509Z,99.80
2022-08-12T01:52:21.382Z,99.90
2022-08-12T01:54:53.229Z,99.90
2022-08-12T01:57:59.776Z,99.90
2022-08-12T02:00:19.536Z,99.90
2022-08-12T02:02:54.326Z,99.90
2022-08-12T02:05:52.809Z,99.90
2022-08-12T02:08:52.296Z,99.90
2022-08-12T02:11:24.543Z,99.90
2022-08-12T02:14:23.227Z,99.90
2022-08-12T02:17:19.140Z,99.90
2022-08-12T02:20:08.041Z,99.90
2022-08-12T02:22:40.264Z,99.90
2022-08-12T02:25:11.505Z,99.90
2022-08-12T02:27:41.593Z,99.90
2022-08-12T02:30:14.524Z,99.90
2022-08-12T02:32:45.085Z,99.90
2022-08-12T02:35:16.475Z,99.90
2022-08-12T02:37:45.482Z,99.90
2022-08-12T02:40:15.574Z,99.90
2022-08-12T02:42:51.950Z,99.90
2022-08-12T02:45:28.310Z,99.90
2022-08-12T02:55:38.516Z,99.90
2022-08-12T02:58:12.360Z,99.90
2022-08-12T03:06:09.260Z,99.90
2022-08-12T03:08:43.613Z,99.90
2022-08-12T03:11:23.686Z,99.90
2022-08-12T03:13:56.268Z,99.90
2022-08-12T03:16:24.891Z,99.90
2022-08-12T03:18:54.551Z,99.90
2022-08-12T03:21:55.314Z,99.90
2022-08-12T03:24:18.578Z,99.90
2022-08-12T03:26:49.153Z,99.90
2022-08-12T03:29:18.683Z,99.90
2022-08-12T03:31:48.120Z,99.90
2022-08-12T03:34:23.637Z,99.90
2022-08-12T03:36:55.606Z,99.90
2022-08-12T03:39:35.602Z,99.90
2022-08-12T03:42:17.460Z,99.90
2022-08-12T03:45:13.538Z,99.90
2022-08-12T03:48:05.485Z,99.90
2022-08-12T03:50:51.381Z,99.90
2022-08-12T03:53:47.676Z,99.90
2022-08-12T03:56:34.034Z,99.90
2022-08-12T03:59:21.508Z,99.90
2022-08-12T04:01:57.697Z,99.90
2022-08-12T04:04:27.963Z,99.90
2022-08-12T04:06:58.103Z,99.90
2022-08-12T04:09:28.737Z,99.90
2022-08-12T04:12:14.373Z,99.90
2022-08-12T04:14:43.108Z,99.90
2022-08-12T04:17:12.423Z,99.90
2022-08-12T04:19:40.944Z,99.90
2022-08-12T04:22:10.017Z,99.90
2022-08-12T04:24:41.064Z,99.90
2022-08-12T04:27:11.207Z,99.90
2022-08-12T04:30:21.460Z,99.90
2022-08-12T04:32:28.698Z,99.90
2022-08-12T04:34:56.804Z,99.90
2022-08-12T04:37:25.045Z,99.90
2022-08-12T04:39:55.488Z,99.90
2022-08-12T04:42:23.912Z,99.90
2022-08-12T04:44:52.140Z,99.90
2022-08-12T04:47:21.802Z,99.90
2022-08-12T04:49:50.710Z,99.90
2022-08-12T04:52:19.662Z,99.90
2022-08-12T04:54:49.011Z,99.90
2022-08-12T04:57:18.440Z,99.90
2022-08-12T04:59:48.891Z,99.90
2022-08-12T05:02:21.134Z,99.90
2022-08-12T05:04:52.503Z,99.90
2022-08-12T05:07:24.206Z,99.90
2022-08-12T05:10:00.007Z,99.90
2022-08-12T05:12:36.495Z,99.90
2022-08-12T05:15:19.751Z,99.90
2022-08-12T05:17:55.563Z,99.90
2022-08-12T05:20:26.091Z,99.90
2022-08-12T05:23:12.445Z,99.90
2022-08-12T05:25:43.237Z,99.90
2022-08-12T05:28:14.425Z,99.90
2022-08-12T05:30:43.435Z,99.90
2022-08-12T05:33:13.277Z,99.90
2022-08-12T05:35:43.879Z,99.90
2022-08-12T05:38:30.708Z,99.90
2022-08-12T05:40:59.015Z,99.90
2022-08-12T05:43:28.796Z,99.90
2022-08-12T05:45:57.023Z,99.90
2022-08-12T05:48:25.487Z,99.90
2022-08-12T05:50:53.730Z,99.90
2022-08-12T05:53:21.921Z,99.90
2022-08-12T05:55:52.463Z,99.90
2022-08-12T05:58:20.532Z,99.90
2022-08-12T06:00:50.023Z,99.90
2022-08-12T06:03:19.641Z,99.90
2022-08-12T06:05:54.864Z,99.90
2022-08-12T06:08:24.177Z,99.90
2022-08-12T06:10:52.749Z,99.90
2022-08-12T06:13:28.221Z,99.90
2022-08-12T06:16:12.237Z,99.90
2022-08-12T06:18:40.687Z,99.90
2022-08-12T06:21:09.638Z,99.90
2022-08-12T06:23:42.609Z,97.50
2022-08-12T06:26:13.112Z,94.70
2022-08-12T06:28:41.943Z,93.60
2022-08-12T06:31:25.974Z,92.50
2022-08-12T06:35:21.756Z,90.90
2022-08-12T06:36:44.465Z,90.20
2022-08-12T06:39:14.580Z,90.10
2022-08-12T06:42:10.671Z,89.20
2022-08-12T06:44:50.488Z,87.40
2022-08-12T06:47:22.078Z,87.20
2022-08-12T06:49:52.524Z,87.60
2022-08-12T06:52:23.153Z,85.10
2022-08-12T06:54:53.561Z,83.00
2022-08-12T06:58:06.141Z,83.30
2022-08-12T07:00:12.236Z,82.20
2022-08-12T07:02:42.029Z,81.40
2022-08-12T07:05:10.779Z,79.90
2022-08-12T07:07:39.415Z,78.10
2022-08-12T07:10:08.631Z,76.80
2022-08-12T07:12:37.123Z,78.10
2022-08-12T07:15:05.897Z,77.90
2022-08-12T07:17:37.476Z,76.20
2022-08-12T07:20:29.448Z,75.10
2022-08-12T07:22:58.577Z,75.80
2022-08-12T07:25:37.951Z,75.50
2022-08-12T07:28:16.085Z,75.50
2022-08-12T07:30:45.393Z,74.10
2022-08-12T07:33:15.746Z,74.10
2022-08-12T07:35:48.039Z,74.10
2022-08-12T07:38:29.796Z,73.50
2022-08-12T07:41:05.668Z,74.00
2022-08-12T07:43:35.610Z,73.60
2022-08-12T07:46:05.732Z,73.00
2022-08-12T07:48:38.047Z,72.00
2022-08-12T07:51:08.320Z,71.00
2022-08-12T07:53:48.653Z,70.20
2022-08-12T07:56:25.620Z,69.50
2022-08-12T07:58:53.909Z,69.60
2022-08-12T08:01:23.261Z,69.40
2022-08-12T08:04:13.008Z,69.30
2022-08-12T08:06:46.370Z,68.80
2022-08-12T08:09:16.711Z,69.00
2022-08-12T08:12:02.155Z,68.80
2022-08-12T08:14:32.513Z,68.20
2022-08-12T08:17:03.447Z,66.90
2022-08-12T08:19:33.674Z,65.40
2022-08-12T08:22:40.509Z,66.00
2022-08-12T08:25:34.447Z,66.70
2022-08-12T08:27:59.913Z,64.40
2022-08-12T08:30:29.703Z,64.00
2022-08-12T08:32:57.814Z,63.70
2022-08-12T08:35:26.135Z,63.60
2022-08-12T08:38:10.445Z,64.70
2022-08-12T08:41:00.200Z,64.40
2022-08-12T08:43:43.903Z,64.60
2022-08-12T08:46:13.639Z,63.30
2022-08-12T08:48:41.714Z,62.00
2022-08-12T08:51:09.777Z,62.40
2022-08-12T08:53:41.381Z,62.00
2022-08-12T08:56:11.530Z,61.50
2022-08-12T08:58:45.425Z,62.90
2022-08-12T09:01:18.536Z,62.60
2022-08-12T09:05:07.545Z,60.60
2022-08-12T09:06:37.272Z,60.40
2022-08-12T09:09:13.108Z,60.70
2022-08-12T09:12:10.983Z,60.20
2022-08-12T09:14:47.110Z,60.20
2022-08-12T09:17:23.176Z,60.40
2022-08-12T09:19:57.486Z,59.70
2022-08-12T09:22:28.629Z,60.20
2022-08-12T09:25:01.248Z,60.00
2022-08-12T09:28:04.089Z,59.90
2022-08-12T09:30:42.397Z,59.80
2022-08-12T09:33:18.918Z,58.60
2022-08-12T09:36:04.576Z,59.30
2022-08-12T09:38:35.595Z,58.90
2022-08-12T09:42:33.859Z,59.40
2022-08-12T09:44:39.365Z,60.20
2022-08-12T09:47:00.446Z,58.70
2022-08-12T09:49:41.498Z,58.50
2022-08-12T09:52:11.653Z,58.50
2022-08-12T09:54:43.045Z,57.80
2022-08-12T09:58:46.072Z,58.50
2022-08-12T10:00:13.023Z,59.10
2022-08-12T10:03:06.795Z,57.80
2022-08-12T10:06:19.275Z,57.80
2022-08-12T10:08:30.366Z,58.50
2022-08-12T10:11:20.523Z,57.70
2022-08-12T10:13:52.721Z,58.40
2022-08-12T10:16:23.059Z,58.90
2022-08-12T10:18:53.680Z,58.30
2022-08-12T10:21:24.300Z,57.80
2022-08-12T10:24:06.084Z,57.90
2022-08-12T10:26:52.607Z,58.30
2022-08-12T10:30:02.859Z,57.90
2022-08-12T10:32:45.396Z,58.10
2022-08-12T10:35:16.588Z,58.90
2022-08-12T10:38:33.494Z,59.10
2022-08-12T10:40:34.479Z,59.70
2022-08-12T10:43:23.316Z,58.00
2022-08-12T10:45:57.259Z,58.00
2022-08-12T10:48:34.606Z,58.90
2022-08-12T10:52:03.093Z,58.80
2022-08-12T10:54:00.934Z,59.10
2022-08-12T10:56:34.779Z,58.90
2022-08-12T10:59:05.108Z,59.70
2022-08-12T11:04:15.055Z,59.40
2022-08-12T11:04:41.327Z,60.00
2022-08-12T11:08:39.014Z,61.20
2022-08-12T11:10:02.797Z,60.00
2022-08-12T11:12:56.504Z,60.10
2022-08-12T11:15:33.587Z,59.00
2022-08-12T11:18:17.954Z,59.70
2022-08-12T11:20:48.045Z,60.00
2022-08-12T11:23:25.003Z,60.50
2022-08-12T11:26:06.482Z,59.70
2022-08-12T11:28:37.687Z,59.90
2022-08-12T11:31:09.703Z,59.70
2022-08-12T11:34:05.907Z,60.20
2022-08-12T11:36:30.638Z,61.10
2022-08-12T11:39:01.318Z,60.80
2022-08-12T11:41:33.470Z,61.00
2022-08-12T11:44:24.094Z,61.70
2022-08-12T11:46:52.925Z,61.50
2022-08-12T11:49:31.787Z,61.50
2022-08-12T11:52:02.154Z,61.40
2022-08-12T11:54:31.051Z,60.80
2022-08-12T11:57:01.925Z,61.10
2022-08-12T12:02:20.203Z,61.80
2022-08-12T12:04:52.772Z,62.00
2022-08-12T12:08:36.078Z,62.00
2022-08-12T12:10:13.093Z,62.30
2022-08-12T12:12:49.654Z,62.10
2022-08-12T12:15:24.936Z,62.00
2022-08-12T12:17:55.764Z,61.70
2022-08-12T12:20:27.818Z,61.00
2022-08-12T12:22:58.909Z,62.00
2022-08-12T12:25:59.367Z,61.90
2022-08-12T12:28:36.616Z,61.90
2022-08-12T12:31:05.582Z,62.10
2022-08-12T12:33:57.009Z,61.90
2022-08-12T12:36:29.984Z,61.60
2022-08-12T12:38:59.929Z,61.80
2022-08-12T12:41:37.121Z,62.00
2022-08-12T12:44:26.010Z,61.60
2022-08-12T12:47:05.222Z,61.20
2022-08-12T12:49:53.634Z,60.80
2022-08-12T12:52:26.818Z,60.70
2022-08-12T12:54:55.552Z,60.90
2022-08-12T12:57:58.937Z,60.70
2022-08-12T13:00:17.859Z,60.70
2022-08-12T13:02:54.016Z,60.50
2022-08-12T13:05:27.907Z,60.30
2022-08-12T13:08:01.403Z,59.70
2022-08-12T13:10:36.723Z,59.80
2022-08-12T13:14:06.439Z,59.80
2022-08-12T13:15:59.258Z,59.80
2022-08-12T13:18:28.899Z,60.30
2022-08-12T13:20:59.486Z,60.30
2022-08-12T13:23:36.797Z,60.40
2022-08-12T13:26:07.704Z,61.00
2022-08-12T13:28:46.463Z,60.40
2022-08-12T13:31:22.271Z,60.40
2022-08-12T13:34:33.947Z,60.20
2022-08-12T13:36:42.205Z,60.10
2022-08-12T13:39:11.958Z,60.50
2022-08-12T13:41:40.029Z,60.10
2022-08-12T13:44:11.731Z,60.00
2022-08-12T13:46:42.166Z,61.00
2022-08-12T13:49:17.653Z,60.80
2022-08-12T13:52:01.771Z,61.00
2022-08-12T13:54:31.210Z,60.20
2022-08-12T13:56:59.700Z,60.70
2022-08-12T13:59:28.777Z,60.30
2022-08-12T14:02:18.376Z,61.00
2022-08-12T14:04:56.202Z,60.30
2022-08-12T14:07:26.075Z,59.90
2022-08-12T14:10:29.292Z,59.70
2022-08-12T14:12:57.402Z,59.40
2022-08-12T14:15:35.017Z,59.80
2022-08-12T14:18:14.057Z,60.30
2022-08-12T14:20:47.663Z,59.70
2022-08-12T14:24:05.335Z,59.70
2022-08-12T14:26:12.024Z,59.60
2022-08-12T14:32:35.311Z,59.30
2022-08-12T14:35:06.528Z,59.30
2022-08-12T14:37:56.136Z,58.70
2022-08-12T14:40:27.953Z,58.80
2022-08-12T14:42:59.020Z,58.90
2022-08-12T14:45:45.273Z,58.80
2022-08-12T14:48:18.549Z,59.10
2022-08-12T14:51:03.182Z,58.70
2022-08-12T14:59:55.737Z,58.80
2022-08-12T15:02:21.530Z,59.00
2022-08-12T15:04:59.471Z,58.90
2022-08-12T15:07:50.185Z,58.90
2022-08-12T15:10:31.274Z,58.50
2022-08-12T15:13:00.091Z,58.80
2022-08-12T15:15:33.831Z,58.70
2022-08-12T15:18:03.714Z,58.80
2022-08-12T15:20:37.810Z,58.70
2022-08-12T15:23:17.984Z,58.80
2022-08-12T15:26:02.676Z,58.60
2022-08-12T15:28:33.789Z,58.90
2022-08-12T15:31:21.679Z,58.70
2022-08-12T15:33:55.216Z,58.70
2022-08-12T15:36:36.620Z,59.10
2022-08-12T15:39:16.933Z,58.70
2022-08-12T15:41:49.720Z,59.30
2022-08-12T15:44:37.941Z,59.20
2022-08-12T15:47:09.706Z,59.20
2022-08-12T15:49:54.568Z,59.10
2022-08-12T15:52:28.850Z,59.50
2022-08-12T15:54:58.745Z,59.50
2022-08-12T15:57:27.738Z,59.20
2022-08-12T16:00:07.175Z,59.10
2022-08-12T16:02:50.623Z,59.30
2022-08-12T16:06:19.016Z,59.00
2022-08-12T16:08:15.196Z,58.90
2022-08-12T16:10:46.873Z,59.70
2022-08-12T16:13:32.639Z,59.00
2022-08-12T16:16:04.077Z,58.80
2022-08-12T16:18:56.066Z,59.00
2022-08-12T16:21:52.559Z,59.00
2022-08-12T16:24:14.622Z,59.10
2022-08-12T16:26:51.458Z,59.30
2022-08-12T16:29:29.517Z,58.90
2022-08-12T16:32:17.528Z,58.80
2022-08-12T16:34:55.601Z,58.60
2022-08-12T16:37:32.662Z,58.30
2022-08-12T16:40:14.024Z,58.30
2022-08-12T16:42:54.150Z,58.10
2022-08-12T16:45:32.024Z,58.40
2022-08-12T16:48:34.861Z,58.40
2022-08-12T16:51:08.217Z,58.80
2022-08-12T16:53:43.827Z,58.20
2022-08-12T16:56:15.215Z,58.40
2022-08-12T16:58:43.890Z,58.60
2022-08-12T17:01:16.497Z,58.70
2022-08-12T17:04:08.167Z,58.50
2022-08-12T17:06:43.427Z,57.90
2022-08-12T17:09:17.595Z,57.80
2022-08-12T17:11:49.282Z,57.80
2022-08-12T17:14:23.144Z,58.10
2022-08-12T17:16:55.256Z,58.30
2022-08-12T17:20:29.444Z,58.40
2022-08-12T17:22:16.729Z,58.30
2022-08-12T17:24:54.968Z,58.90
2022-08-12T17:27:25.226Z,58.80
2022-08-12T17:30:02.861Z,58.90
2022-08-12T17:32:37.232Z,58.80
2022-08-12T17:35:29.548Z,59.00
2022-08-12T17:38:03.215Z,59.10
2022-08-12T17:40:35.916Z,59.40
2022-08-12T17:43:55.955Z,59.40
2022-08-12T17:45:59.093Z,59.20
2022-08-12T17:48:35.161Z,58.80
2022-08-12T17:51:16.065Z,58.50
2022-08-12T17:54:11.526Z,59.00
2022-08-12T17:56:38.005Z,58.70
2022-08-12T17:59:09.775Z,58.70
2022-08-12T18:01:44.348Z,58.50
2022-08-12T18:04:21.328Z,58.60
2022-08-12T18:06:51.785Z,58.60
2022-08-12T18:09:24.565Z,58.90
2022-08-12T18:12:24.785Z,59.00
2022-08-12T18:15:09.118Z,59.10
2022-08-12T18:17:39.073Z,59.20
2022-08-12T18:20:15.782Z,59.40
2022-08-12T18:22:45.776Z,59.40
2022-08-12T18:26:12.999Z,59.60
2022-08-12T18:28:29.240Z,59.60
2022-08-12T18:31:03.394Z,59.40
2022-08-12T18:33:43.908Z,59.60
2022-08-12T18:36:22.674Z,60.10
2022-08-12T18:38:56.072Z,60.00
2022-08-12T18:41:34.591Z,60.10
2022-08-12T18:44:09.647Z,60.50
2022-08-12T18:46:53.879Z,60.40
2022-08-12T18:49:30.381Z,60.70
2022-08-12T18:52:04.293Z,60.90
2022-08-12T18:54:35.664Z,60.90
2022-08-12T18:57:19.848Z,61.30
2022-08-12T19:00:06.788Z,61.50
2022-08-12T19:02:39.794Z,61.70
2022-08-12T19:05:11.096Z,62.00
2022-08-12T19:08:00.677Z,62.20
2022-08-12T19:14:42.225Z,62.50
2022-08-12T19:28:36.341Z,63.40
2022-08-12T19:31:55.438Z,63.50
2022-08-12T19:37:27.204Z,63.90
2022-08-12T19:40:09.345Z,64.20
2022-08-12T19:42:57.704Z,64.40
2022-08-12T19:45:42.379Z,65.00
2022-08-12T19:48:20.119Z,65.00
2022-08-12T19:50:52.728Z,65.20
2022-08-12T19:53:22.805Z,65.40
2022-08-12T19:55:53.251Z,65.60
2022-08-12T19:58:23.249Z,65.70
2022-08-12T20:00:54.357Z,65.90
2022-08-12T20:03:38.105Z,66.30
2022-08-12T20:06:13.523Z,66.50
2022-08-12T20:08:48.628Z,66.60
2022-08-12T20:12:12.608Z,67.10
2022-08-12T20:14:06.801Z,67.30
2022-08-12T20:19:52.558Z,67.60
2022-08-12T20:22:24.031Z,67.40
2022-08-12T20:24:57.869Z,67.20
2022-08-12T20:28:04.525Z,66.90
2022-08-12T20:30:20.629Z,67.00
2022-08-12T20:33:06.042Z,67.10
2022-08-12T20:36:13.734Z,67.20
2022-08-12T20:38:35.551Z,67.10
2022-08-12T20:41:16.749Z,67.20
2022-08-12T20:43:49.317Z,67.20
2022-08-12T20:46:18.047Z,67.40
2022-08-12T20:48:54.286Z,67.60
2022-08-12T20:51:24.907Z,67.70
2022-08-12T20:53:58.748Z,67.80
2022-08-12T20:56:34.437Z,67.90
2022-08-12T20:59:05.523Z,68.10
2022-08-12T21:01:46.094Z,68.40
2022-08-12T21:04:34.721Z,68.60
2022-08-12T21:07:09.299Z,68.70
2022-08-12T21:09:41.446Z,68.70
2022-08-12T21:12:31.433Z,69.10
2022-08-12T21:15:23.515Z,68.90
2022-08-12T21:18:11.299Z,69.00
2022-08-12T21:20:50.090Z,69.20
2022-08-12T21:23:21.204Z,69.20
2022-08-12T21:25:51.163Z,69.10
2022-08-12T21:28:27.775Z,69.10
2022-08-12T21:32:37.871Z,68.90
2022-08-12T21:34:08.864Z,69.00
2022-08-12T21:36:40.243Z,69.20
2022-08-12T21:39:21.022Z,69.30
2022-08-12T21:41:52.025Z,69.50
2022-08-12T21:44:24.771Z,69.70
2022-08-12T21:47:21.142Z,69.80
2022-08-12T21:50:02.958Z,69.90
2022-08-12T21:52:36.451Z,70.00
2022-08-12T21:55:18.703Z,69.90
2022-08-12T21:57:53.426Z,69.80
2022-08-12T22:00:32.382Z,70.00
2022-08-12T22:04:01.300Z,70.10
2022-08-12T22:06:31.439Z,70.80
2022-08-12T22:09:15.309Z,70.20
2022-08-12T22:11:56.003Z,70.20
2022-08-12T22:14:28.910Z,70.20
2022-08-12T22:16:58.682Z,70.20
2022-08-12T22:19:28.837Z,70.30
2022-08-12T22:22:04.758Z,70.50
2022-08-12T22:24:33.144Z,70.50
2022-08-12T22:27:14.535Z,71.00
2022-08-12T22:30:16.895Z,71.50
2022-08-12T22:32:50.754Z,71.40
2022-08-12T22:35:55.318Z,71.60
2022-08-12T22:38:26.683Z,71.70
2022-08-12T22:41:01.028Z,71.60
2022-08-12T22:44:00.267Z,71.30
2022-08-12T22:46:53.198Z,70.70
2022-08-12T22:49:36.555Z,70.50
2022-08-12T22:52:12.337Z,70.20
2022-08-12T22:54:59.936Z,70.40
2022-08-12T22:57:48.937Z,70.60
2022-08-12T23:00:24.651Z,70.50
2022-08-12T23:02:59.368Z,70.60
2022-08-12T23:05:57.799Z,70.40
2022-08-12T23:08:22.214Z,70.40
2022-08-12T23:10:50.545Z,70.40
2022-08-12T23:13:43.223Z,70.50
2022-08-12T23:16:18.246Z,70.50
2022-08-12T23:19:01.636Z,70.60
2022-08-12T23:22:05.989Z,70.80
2022-08-12T23:24:31.201Z,70.90
2022-08-12T23:27:18.370Z,71.10
2022-08-12T23:29:59.491Z,71.20
2022-08-12T23:32:38.037Z,71.20
2022-08-12T23:35:08.011Z,71.30
2022-08-12T23:37:47.783Z,71.50
2022-08-12T23:40:24.269Z,71.70
2022-08-12T23:42:54.313Z,71.80
2022-08-12T23:45:31.423Z,72.10
2022-08-12T23:48:03.458Z,72.30
2022-08-12T23:50:33.928Z,72.40
2022-08-12T23:53:05.734Z,72.50
2022-08-12T23:55:40.685Z,72.80
2022-08-12T23:58:20.749Z,72.90
